Time;durP1;ratioP1;P1;durP2;ratioP2;P2;SDS_P1;SDS_P2;PMS_P1;PMS_P2;Temp;Humidity;BMP_temperature;BMP_pressure;BME280_temperature;BME280_humidity;BME280_pressure;Samples;Min_cycle;Max_cycle;Signal;HPM_P1;HPM_P2
2023/01/18 00:00:52;;;;;;;23.60;14.43;;;;;;;;;;4957333;28;20234;-76
2023/01/18 00:03:20;;;;;;;19.10;14.67;;;;;;;;;;4918459;28;20235;-77
2023/01/18 00:05:48;;;;;;;17.77;14.43;;;;;;;;;;4956456;28;20317;-76
2023/01/18 00:08:18;;;;;;;15.47;13.37;;;;;;;;;;4951857;28;20289;-77
2023/01/18 00:10:49;;;;;;;19.60;14.43;;;;;;;;;;4944860;28;20327;-76
2023/01/18 00:13:14;;;;;;;17.43;15.03;;;;;;;;;;4938139;28;20253;-76
2023/01/18 00:15:44;;;;;;;17.00;13.67;;;;;;;;;;4949830;28;20598;-79
2023/01/18 00:18:12;;;;;;;17.30;14.10;;;;;;;;;;4929225;28;20698;-79
2023/01/18 00:20:38;;;;;;;17.27;14.00;;;;;;;;;;4954173;28;20241;-78
2023/01/18 00:23:03;;;;;;;14.20;12.57;;;;;;;;;;4947644;28;20221;-78
2023/01/18 00:25:34;;;;;;;23.87;14.73;;;;;;;;;;4959354;28;20237;-79
2023/01/18 00:28:01;;;;;;;16.67;13.23;;;;;;;;;;4945078;28;20715;-78
2023/01/18 00:30:27;;;;;;;17.77;13.30;;;;;;;;;;4944286;28;20235;-79
2023/01/18 00:32:56;;;;;;;19.80;14.27;;;;;;;;;;4954584;28;20233;-79
2023/01/18 00:35:24;;;;;;;18.90;13.30;;;;;;;;;;4934411;28;20710;-78
2023/01/18 00:37:50;;;;;;;26.50;20.30;;;;;;;;;;4953199;28;20229;-78
2023/01/18 00:40:21;;;;;;;26.07;20.17;;;;;;;;;;4933114;28;20222;-78
2023/01/18 00:45:31;;;;;;;15.83;13.73;;;;;;;;;;4929000;28;20238;-78
2023/01/18 00:47:59;;;;;;;20.07;16.30;;;;;;;;;;4947490;28;20230;-75
2023/01/18 00:50:24;;;;;;;17.57;14.30;;;;;;;;;;4951301;28;20563;-78
2023/01/18 00:52:57;;;;;;;31.13;14.70;;;;;;;;;;4949382;28;20230;-78
2023/01/18 00:55:22;;;;;;;14.53;12.90;;;;;;;;;;4923655;28;20269;-78
2023/01/18 00:57:55;;;;;;;15.17;13.03;;;;;;;;;;4947630;28;20230;-79
2023/01/18 01:00:22;;;;;;;16.20;12.43;;;;;;;;;;4924815;28;20320;-78
2023/01/18 01:02:52;;;;;;;20.20;12.93;;;;;;;;;;4948687;28;20233;-78
2023/01/18 01:08:06;;;;;;;14.93;12.57;;;;;;;;;;4950558;28;20241;-78
2023/01/18 01:10:35;;;;;;;16.77;12.97;;;;;;;;;;4956269;28;20215;-78
2023/01/18 01:26:48;;;;;;;17.43;12.20;;;;;;;;;;4963564;28;20226;-77
2023/01/18 01:29:16;;;;;;;22.17;16.10;;;;;;;;;;4945032;28;20285;-78
2023/01/18 01:31:42;;;;;;;27.60;19.10;;;;;;;;;;4957456;28;20233;-79
2023/01/18 01:34:08;;;;;;;17.17;14.60;;;;;;;;;;4924176;28;20601;-79
2023/01/18 01:36:39;;;;;;;17.23;12.20;;;;;;;;;;4929398;28;20286;-79
2023/01/18 01:39:09;;;;;;;17.27;12.60;;;;;;;;;;4961430;28;20641;-77
2023/01/18 01:41:35;;;;;;;19.27;12.53;;;;;;;;;;4944389;28;20227;-78
2023/01/18 01:44:18;;;;;;;16.27;12.77;;;;;;;;;;4929083;29;20280;-78
2023/01/18 01:46:52;;;;;;;14.30;11.67;;;;;;;;;;4958656;28;20682;-78
2023/01/18 01:49:32;;;;;;;12.50;10.57;;;;;;;;;;4954936;28;20299;-77
2023/01/18 01:52:11;;;;;;;15.60;11.93;;;;;;;;;;4931467;28;20640;-78
2023/01/18 01:54:48;;;;;;;16.17;13.03;;;;;;;;;;4947181;28;20250;-78
2023/01/18 01:57:28;;;;;;;14.90;11.50;;;;;;;;;;4945723;28;20222;-78
2023/01/18 01:59:58;;;;;;;16.63;11.93;;;;;;;;;;4934629;28;20231;-76
2023/01/18 02:02:24;;;;;;;15.83;11.57;;;;;;;;;;4958324;28;20283;-78
2023/01/18 02:04:52;;;;;;;16.53;11.37;;;;;;;;;;4927635;28;20214;-76
2023/01/18 02:07:21;;;;;;;14.03;11.77;;;;;;;;;;4932095;28;20284;-78
2023/01/18 02:09:50;;;;;;;12.90;11.33;;;;;;;;;;4941157;28;20285;-77
2023/01/18 02:12:19;;;;;;;14.70;11.33;;;;;;;;;;4940489;28;20241;-78
2023/01/18 02:14:44;;;;;;;13.43;11.60;;;;;;;;;;4936751;28;20240;-78
2023/01/18 02:17:29;;;;;;;13.77;11.53;;;;;;;;;;4960614;28;20219;-78
2023/01/18 02:20:20;;;;;;;16.43;11.27;;;;;;;;;;4968585;28;20227;-78
2023/01/18 02:22:57;;;;;;;15.33;11.07;;;;;;;;;;4952215;28;20238;-77
2023/01/18 02:26:00;;;;;;;14.97;11.03;;;;;;;;;;4954098;28;20246;-78
2023/01/18 02:28:32;;;;;;;14.07;11.33;;;;;;;;;;4954120;28;20223;-77
2023/01/18 02:31:02;;;;;;;11.77;10.40;;;;;;;;;;4944664;28;20226;-78
2023/01/18 02:33:32;;;;;;;14.30;10.97;;;;;;;;;;4946896;28;20722;-78
2023/01/18 02:35:59;;;;;;;13.93;10.73;;;;;;;;;;4944895;28;20222;-79
2023/01/18 02:38:48;;;;;;;16.70;11.63;;;;;;;;;;4945038;28;20221;-78
2023/01/18 02:41:20;;;;;;;14.30;11.40;;;;;;;;;;4910733;28;20318;-78
2023/01/18 02:46:39;;;;;;;13.50;11.43;;;;;;;;;;4952506;28;20219;-77
2023/01/18 02:49:09;;;;;;;15.10;11.23;;;;;;;;;;4966550;28;20219;-78
2023/01/18 02:51:37;;;;;;;19.57;11.97;;;;;;;;;;4955531;28;20241;-78
2023/01/18 02:54:07;;;;;;;12.53;10.83;;;;;;;;;;4937568;28;20506;-78
2023/01/18 02:56:43;;;;;;;12.80;11.00;;;;;;;;;;4950536;28;20226;-78
2023/01/18 02:59:24;;;;;;;14.53;10.70;;;;;;;;;;4932326;28;20249;-78
2023/01/18 03:01:58;;;;;;;14.33;11.00;;;;;;;;;;4953284;28;20226;-76
2023/01/18 03:04:26;;;;;;;18.10;11.70;;;;;;;;;;4935878;28;20325;-78
2023/01/18 03:07:04;;;;;;;11.87;10.30;;;;;;;;;;4953029;28;20218;-78
2023/01/18 03:09:30;;;;;;;12.20;10.57;;;;;;;;;;4939889;28;20234;-78
2023/01/18 03:11:58;;;;;;;11.30;10.13;;;;;;;;;;4931535;28;20278;-78
2023/01/18 03:14:33;;;;;;;12.80;11.43;;;;;;;;;;4932359;28;20234;-78
2023/01/18 03:17:18;;;;;;;21.07;11.40;;;;;;;;;;4960243;28;20237;-78
2023/01/18 03:20:11;;;;;;;15.63;11.57;;;;;;;;;;4938411;28;20784;-78
2023/01/18 03:25:32;;;;;;;16.33;11.00;;;;;;;;;;4954542;28;20735;-78
2023/01/18 03:33:46;;;;;;;15.30;10.63;;;;;;;;;;4935999;28;20241;-76
2023/01/18 03:36:23;;;;;;;13.83;11.40;;;;;;;;;;4946153;28;20225;-78
2023/01/18 03:39:07;;;;;;;15.63;10.93;;;;;;;;;;4938945;28;20258;-79
2023/01/18 03:41:37;;;;;;;13.07;9.67;;;;;;;;;;4904634;28;20223;-78
2023/01/18 03:44:30;;;;;;;16.67;11.30;;;;;;;;;;4952262;28;20257;-78
2023/01/18 03:46:58;;;;;;;13.10;10.90;;;;;;;;;;4941706;28;20234;-78
2023/01/18 03:49:29;;;;;;;13.33;9.87;;;;;;;;;;4956833;28;20218;-79
2023/01/18 03:52:04;;;;;;;15.80;10.10;;;;;;;;;;4963192;28;20694;-79
2023/01/18 03:54:49;;;;;;;12.30;10.50;;;;;;;;;;4948836;28;20226;-78
2023/01/18 03:57:37;;;;;;;12.57;10.70;;;;;;;;;;4959715;28;20218;-78
2023/01/18 04:00:04;;;;;;;14.27;9.97;;;;;;;;;;4937951;28;20660;-78
2023/01/18 04:02:37;;;;;;;13.77;10.03;;;;;;;;;;4946982;28;20222;-78
2023/01/18 04:05:04;;;;;;;14.60;9.43;;;;;;;;;;4942222;28;21032;-79
2023/01/18 04:07:35;;;;;;;15.33;10.90;;;;;;;;;;4919583;28;20702;-79
2023/01/18 04:10:06;;;;;;;15.97;10.57;;;;;;;;;;4949166;28;20297;-77
2023/01/18 04:12:33;;;;;;;14.10;10.97;;;;;;;;;;4954065;28;20718;-77
2023/01/18 04:15:01;;;;;;;16.20;11.07;;;;;;;;;;4954210;28;20234;-77
2023/01/18 04:17:31;;;;;;;11.73;9.63;;;;;;;;;;4942236;28;20241;-79
2023/01/18 04:20:01;;;;;;;21.63;15.23;;;;;;;;;;4944823;28;20725;-78
2023/01/18 04:22:29;;;;;;;19.43;13.40;;;;;;;;;;4920344;28;20230;-77
2023/01/18 04:24:57;;;;;;;30.47;21.30;;;;;;;;;;4936643;28;20226;-79
2023/01/18 04:27:24;;;;;;;19.63;12.43;;;;;;;;;;4925015;28;20221;-79
2023/01/18 04:29:49;;;;;;;18.27;14.23;;;;;;;;;;4940673;28;20226;-80
2023/01/18 04:32:15;;;;;;;49.50;25.63;;;;;;;;;;4955639;28;20755;-80
2023/01/18 04:34:40;;;;;;;18.93;12.30;;;;;;;;;;4929444;28;20230;-79
2023/01/18 04:37:09;;;;;;;15.20;11.30;;;;;;;;;;4925683;28;20242;-77
2023/01/18 04:39:39;;;;;;;17.37;10.83;;;;;;;;;;4940798;28;20671;-80
2023/01/18 04:42:07;;;;;;;15.97;12.03;;;;;;;;;;4947541;28;20278;-79
2023/01/18 04:44:32;;;;;;;13.10;10.73;;;;;;;;;;4954015;28;20255;-78
2023/01/18 04:46:58;;;;;;;14.50;10.83;;;;;;;;;;4922225;28;20593;-79
2023/01/18 04:49:24;;;;;;;14.93;12.10;;;;;;;;;;4952485;28;20729;-79
2023/01/18 04:51:49;;;;;;;13.27;11.47;;;;;;;;;;4941263;28;20230;-80
2023/01/18 04:54:18;;;;;;;13.07;11.10;;;;;;;;;;4942180;28;20226;-79
2023/01/18 04:56:43;;;;;;;18.97;12.23;;;;;;;;;;4952885;28;20222;-76
2023/01/18 04:59:14;;;;;;;15.73;12.53;;;;;;;;;;4938507;28;20368;-78
2023/01/18 05:01:40;;;;;;;14.63;12.27;;;;;;;;;;4937555;28;20279;-78
2023/01/18 05:04:07;;;;;;;13.60;12.20;;;;;;;;;;4914860;28;20455;-77
2023/01/18 05:06:33;;;;;;;16.10;12.20;;;;;;;;;;4941393;28;20231;-78
2023/01/18 05:09:03;;;;;;;13.77;12.33;;;;;;;;;;4926917;29;20228;-78
2023/01/18 05:11:29;;;;;;;15.93;11.70;;;;;;;;;;4955131;28;20603;-79
2023/01/18 05:13:57;;;;;;;16.57;12.17;;;;;;;;;;4939935;28;20241;-79
2023/01/18 05:16:27;;;;;;;14.90;11.97;;;;;;;;;;4943743;28;20723;-78
2023/01/18 05:18:54;;;;;;;17.53;12.23;;;;;;;;;;4949705;28;20227;-77
2023/01/18 05:21:20;;;;;;;19.17;12.47;;;;;;;;;;4937747;28;20730;-78
2023/01/18 05:23:46;;;;;;;16.30;12.63;;;;;;;;;;4947957;28;20233;-79
2023/01/18 05:26:20;;;;;;;20.27;12.00;;;;;;;;;;4938042;28;20210;-78
2023/01/18 05:28:49;;;;;;;11.97;10.77;;;;;;;;;;4946380;28;20633;-79
2023/01/18 05:31:14;;;;;;;16.50;11.87;;;;;;;;;;4946672;28;20215;-79
2023/01/18 05:33:45;;;;;;;16.90;12.30;;;;;;;;;;4942263;28;20603;-78
2023/01/18 05:36:10;;;;;;;15.70;13.00;;;;;;;;;;4940840;28;21243;-78
2023/01/18 05:38:43;;;;;;;20.25;11.85;;;;;;;;;;4944742;28;20223;-78
2023/01/18 05:41:09;;;;;;;20.17;11.73;;;;;;;;;;4930771;28;20258;-78
2023/01/18 05:43:39;;;;;;;16.87;12.27;;;;;;;;;;4940609;28;20230;-78
2023/01/18 05:46:07;;;;;;;17.87;12.67;;;;;;;;;;4943404;28;20226;-79
2023/01/18 05:48:33;;;;;;;17.40;11.90;;;;;;;;;;4961462;28;20227;-78
2023/01/18 05:51:10;;;;;;;21.17;14.23;;;;;;;;;;4958784;28;20219;-78
2023/01/18 05:53:40;;;;;;;21.60;15.87;;;;;;;;;;4946099;28;20227;-77
2023/01/18 05:56:07;;;;;;;19.27;15.40;;;;;;;;;;4958990;28;20301;-78
2023/01/18 05:58:32;;;;;;;20.00;17.83;;;;;;;;;;4938452;28;20223;-78
2023/01/18 06:00:58;;;;;;;25.03;16.70;;;;;;;;;;4942850;28;20231;-78
2023/01/18 06:03:24;;;;;;;22.80;18.03;;;;;;;;;;4944501;28;20222;-78
2023/01/18 06:05:52;;;;;;;20.87;15.53;;;;;;;;;;4947812;28;20238;-78
2023/01/18 06:08:18;;;;;;;19.67;14.20;;;;;;;;;;4943365;28;20743;-78
2023/01/18 06:10:43;;;;;;;21.00;14.13;;;;;;;;;;4951073;28;20249;-78
2023/01/18 06:13:09;;;;;;;17.27;13.83;;;;;;;;;;4931659;28;20210;-78
2023/01/18 06:15:37;;;;;;;16.50;13.20;;;;;;;;;;4953539;28;20223;-79
2023/01/18 06:18:07;;;;;;;20.03;13.93;;;;;;;;;;4948074;28;20227;-78
2023/01/18 06:20:32;;;;;;;16.73;14.67;;;;;;;;;;4935247;29;20234;-79
2023/01/18 06:22:58;;;;;;;14.93;13.37;;;;;;;;;;4991394;22;20240;-87
2023/01/18 06:25:23;;;;;;;18.93;14.17;;;;;;;;;;4980355;28;20227;-86
2023/01/18 06:27:49;;;;;;;16.43;12.20;;;;;;;;;;4972977;28;20221;-87
2023/01/18 06:30:18;;;;;;;15.93;13.20;;;;;;;;;;4979230;28;20217;-87
2023/01/18 06:32:49;;;;;;;17.33;13.00;;;;;;;;;;4991835;28;20237;-87
2023/01/18 06:35:19;;;;;;;15.43;11.20;;;;;;;;;;4969366;28;20221;-87
2023/01/18 06:37:45;;;;;;;12.47;11.17;;;;;;;;;;4973712;28;20249;-87
2023/01/18 06:40:11;;;;;;;15.23;11.40;;;;;;;;;;4983627;28;20253;-87
2023/01/18 06:42:37;;;;;;;15.23;12.70;;;;;;;;;;4986877;28;20241;-87
2023/01/18 06:45:03;;;;;;;16.80;12.13;;;;;;;;;;4960691;28;20300;-87
2023/01/18 06:47:29;;;;;;;15.20;12.10;;;;;;;;;;4976659;28;20225;-86
2023/01/18 06:49:55;;;;;;;15.47;10.83;;;;;;;;;;4975875;28;20230;-87
2023/01/18 06:52:23;;;;;;;13.70;10.23;;;;;;;;;;4960012;28;20229;-87
2023/01/18 06:54:51;;;;;;;14.50;10.63;;;;;;;;;;4970599;28;20226;-87
2023/01/18 06:57:21;;;;;;;12.63;10.60;;;;;;;;;;4972220;28;20268;-86
2023/01/18 06:59:46;;;;;;;17.50;10.77;;;;;;;;;;4969379;28;20262;-87
2023/01/18 07:02:12;;;;;;;14.53;10.70;;;;;;;;;;4971222;28;20217;-88
2023/01/18 07:04:42;;;;;;;19.10;11.73;;;;;;;;;;4982048;28;20267;-87
2023/01/18 07:07:08;;;;;;;14.63;11.33;;;;;;;;;;4997678;28;20225;-86
2023/01/18 07:09:34;;;;;;;15.13;10.77;;;;;;;;;;4977376;28;20229;-87
2023/01/18 07:12:04;;;;;;;15.57;12.03;;;;;;;;;;4977505;28;20221;-86
2023/01/18 07:14:30;;;;;;;15.97;11.70;;;;;;;;;;4975269;28;20233;-86
2023/01/18 07:16:58;;;;;;;16.73;11.27;;;;;;;;;;4999469;28;20285;-87
2023/01/18 07:19:26;;;;;;;15.13;12.13;;;;;;;;;;4979946;28;20231;-86
2023/01/18 07:21:52;;;;;;;14.40;12.03;;;;;;;;;;4957755;28;20293;-87
2023/01/18 07:24:21;;;;;;;14.27;11.87;;;;;;;;;;4996107;28;20301;-87
2023/01/18 07:26:46;;;;;;;17.73;11.50;;;;;;;;;;4982532;28;20236;-87
2023/01/18 07:29:12;;;;;;;16.63;12.27;;;;;;;;;;4983194;28;20214;-88
2023/01/18 07:31:39;;;;;;;15.27;11.67;;;;;;;;;;4984772;28;20280;-86
2023/01/18 07:34:09;;;;;;;17.33;12.17;;;;;;;;;;4981891;28;20236;-86
2023/01/18 07:36:38;;;;;;;13.20;10.87;;;;;;;;;;5009248;28;20701;-87
2023/01/18 07:39:08;;;;;;;18.30;12.80;;;;;;;;;;4995376;28;20233;-86
2023/01/18 07:41:36;;;;;;;17.80;13.73;;;;;;;;;;4988466;28;20226;-87
2023/01/18 07:44:04;;;;;;;14.07;12.30;;;;;;;;;;5007434;28;20267;-87
2023/01/18 07:46:29;;;;;;;18.90;12.87;;;;;;;;;;4983345;28;20225;-87
2023/01/18 07:48:58;;;;;;;14.87;12.63;;;;;;;;;;4971815;28;20653;-87
2023/01/18 07:51:23;;;;;;;18.93;13.17;;;;;;;;;;4973986;28;20225;-86
2023/01/18 07:53:52;;;;;;;14.73;12.60;;;;;;;;;;4977865;28;20244;-87
2023/01/18 07:56:21;;;;;;;16.57;12.57;;;;;;;;;;4976554;28;20222;-86
2023/01/18 07:58:50;;;;;;;15.00;12.30;;;;;;;;;;4978000;28;20283;-86
2023/01/18 08:01:19;;;;;;;15.43;12.00;;;;;;;;;;4966647;28;20213;-86
2023/01/18 08:03:46;;;;;;;16.40;12.37;;;;;;;;;;4985637;28;20232;-85
2023/01/18 08:06:12;;;;;;;16.93;12.87;;;;;;;;;;4978956;28;20301;-86
2023/01/18 08:08:40;;;;;;;13.67;12.10;;;;;;;;;;4979558;28;20213;-86
2023/01/18 08:11:08;;;;;;;14.27;11.73;;;;;;;;;;4972671;28;20296;-86
2023/01/18 08:13:34;;;;;;;16.77;12.00;;;;;;;;;;4962871;28;20253;-86
2023/01/18 08:16:00;;;;;;;13.40;12.00;;;;;;;;;;4966375;28;20214;-87
2023/01/18 08:18:26;;;;;;;16.87;13.23;;;;;;;;;;4966970;28;20225;-85
2023/01/18 08:20:56;;;;;;;20.53;13.63;;;;;;;;;;4985253;28;20758;-86
2023/01/18 08:23:24;;;;;;;15.67;13.50;;;;;;;;;;4981278;28;20312;-87
2023/01/18 08:25:49;;;;;;;18.37;13.80;;;;;;;;;;4983283;28;20690;-87
2023/01/18 08:28:18;;;;;;;16.03;13.77;;;;;;;;;;4971285;28;20726;-86
2023/01/18 08:30:45;;;;;;;15.57;13.20;;;;;;;;;;4987780;28;20213;-86
2023/01/18 08:33:11;;;;;;;17.97;13.73;;;;;;;;;;4986884;28;20221;-87
2023/01/18 08:35:42;;;;;;;15.50;13.87;;;;;;;;;;5010596;28;20232;-87
2023/01/18 08:38:08;;;;;;;16.43;14.10;;;;;;;;;;4984686;28;20218;-87
2023/01/18 08:40:34;;;;;;;20.60;14.43;;;;;;;;;;4981261;28;20244;-87
2023/01/18 08:43:02;;;;;;;15.53;12.93;;;;;;;;;;4973153;28;20209;-87
2023/01/18 08:45:30;;;;;;;17.63;14.53;;;;;;;;;;5001199;28;20313;-87
2023/01/18 08:48:14;;;;;;;20.43;15.33;;;;;;;;;;4970053;28;20696;-87
2023/01/18 08:50:41;;;;;;;18.97;16.77;;;;;;;;;;4981054;28;20237;-86
2023/01/18 08:53:09;;;;;;;20.90;16.70;;;;;;;;;;4971163;28;20228;-86
2023/01/18 08:55:37;;;;;;;23.00;16.90;;;;;;;;;;4988400;28;20240;-87
2023/01/18 08:58:02;;;;;;;21.37;18.87;;;;;;;;;;4991120;28;20222;-87
2023/01/18 09:00:32;;;;;;;20.67;17.70;;;;;;;;;;4964708;28;20238;-87
2023/01/18 09:03:01;;;;;;;18.07;16.10;;;;;;;;;;4967796;28;20226;-87
2023/01/18 09:05:26;;;;;;;21.30;15.87;;;;;;;;;;4996788;28;20227;-88
2023/01/18 09:07:55;;;;;;;20.03;15.20;;;;;;;;;;4971302;28;20221;-87
2023/01/18 09:10:25;;;;;;;16.57;13.47;;;;;;;;;;4996221;28;20255;-88
2023/01/18 09:12:50;;;;;;;16.20;14.00;;;;;;;;;;4984456;28;20288;-87
2023/01/18 09:15:19;;;;;;;16.17;14.40;;;;;;;;;;4974013;28;20573;-88
2023/01/18 09:17:47;;;;;;;23.17;14.40;;;;;;;;;;5006764;28;20233;-88
2023/01/18 09:20:15;;;;;;;21.37;15.43;;;;;;;;;;4987923;28;20331;-87
2023/01/18 09:22:43;;;;;;;17.67;15.10;;;;;;;;;;4973615;28;20245;-88
2023/01/18 09:25:10;;;;;;;17.67;14.87;;;;;;;;;;4987439;28;20217;-88
2023/01/18 09:27:35;;;;;;;18.67;15.23;;;;;;;;;;4983233;28;20261;-85
2023/01/18 09:30:03;;;;;;;19.93;15.50;;;;;;;;;;4987068;28;20218;-87
2023/01/18 09:32:29;;;;;;;18.67;15.17;;;;;;;;;;5011534;28;20225;-88
2023/01/18 09:34:55;;;;;;;16.83;14.87;;;;;;;;;;4992386;28;20320;-88
2023/01/18 09:37:20;;;;;;;16.30;14.53;;;;;;;;;;4981322;28;20230;-88
2023/01/18 09:39:46;;;;;;;19.70;15.73;;;;;;;;;;4998463;28;20221;-88
2023/01/18 09:42:34;;;;;;;18.57;16.43;;;;;;;;;;4987323;28;20225;-89
2023/01/18 09:45:00;;;;;;;18.57;15.80;;;;;;;;;;4992939;28;20221;-89
2023/01/18 09:47:45;;;;;;;22.77;16.30;;;;;;;;;;4999947;28;20249;-87
2023/01/18 09:50:17;;;;;;;21.00;15.60;;;;;;;;;;4987063;28;20236;-87
2023/01/18 09:52:53;;;;;;;18.97;15.30;;;;;;;;;;4972511;28;20234;-89
2023/01/18 09:55:24;;;;;;;15.90;14.20;;;;;;;;;;4998207;28;20223;-89
2023/01/18 09:58:09;;;;;;;19.57;16.23;;;;;;;;;;5016460;28;20222;-88
2023/01/18 10:00:36;;;;;;;17.63;15.17;;;;;;;;;;4997157;28;20531;-89
2023/01/18 10:03:07;;;;;;;17.93;15.93;;;;;;;;;;5000128;28;20220;-87
2023/01/18 10:05:37;;;;;;;29.03;24.03;;;;;;;;;;4962306;28;20227;-87
2023/01/18 10:08:12;;;;;;;21.10;17.77;;;;;;;;;;4971256;28;20293;-87
2023/01/18 10:10:42;;;;;;;20.63;18.43;;;;;;;;;;4988213;28;20251;-86
2023/01/18 10:13:34;;;;;;;18.60;15.60;;;;;;;;;;5000153;28;20240;-87
2023/01/18 10:16:01;;;;;;;19.03;15.77;;;;;;;;;;4977788;28;20229;-87
2023/01/18 10:18:29;;;;;;;15.90;14.20;;;;;;;;;;4986622;28;20261;-87
2023/01/18 10:20:59;;;;;;;16.70;15.00;;;;;;;;;;4989519;28;20276;-89
2023/01/18 10:23:28;;;;;;;15.83;14.00;;;;;;;;;;4981129;28;20236;-88
2023/01/18 10:25:56;;;;;;;18.03;16.03;;;;;;;;;;5000065;28;20218;-89
2023/01/18 10:28:33;;;;;;;16.17;14.17;;;;;;;;;;4980556;28;20314;-88
2023/01/18 10:31:43;;;;;;;20.13;14.97;;;;;;;;;;4995456;28;20217;-88
2023/01/18 10:34:18;;;;;;;16.40;13.53;;;;;;;;;;4911802;29;20290;-88
2023/01/18 10:36:47;;;;;;;14.33;12.90;;;;;;;;;;4930792;29;20234;-88
2023/01/18 10:39:40;;;;;;;17.77;13.63;;;;;;;;;;4970077;28;20218;-88
2023/01/18 10:42:15;;;;;;;15.23;13.03;;;;;;;;;;5007542;28;20233;-88
2023/01/18 10:44:43;;;;;;;13.70;12.23;;;;;;;;;;4988543;28;20232;-89
2023/01/18 10:47:10;;;;;;;13.97;12.57;;;;;;;;;;4971150;28;20225;-87
2023/01/18 10:49:41;;;;;;;17.57;14.20;;;;;;;;;;4959787;28;20309;-88
2023/01/18 10:52:20;;;;;;;18.37;15.30;;;;;;;;;;4964322;28;20236;-89
2023/01/18 10:54:54;;;;;;;16.33;14.63;;;;;;;;;;4968198;28;20210;-87
2023/01/18 10:57:35;;;;;;;17.13;13.73;;;;;;;;;;4967504;28;20224;-90
2023/01/18 11:00:11;;;;;;;13.73;12.40;;;;;;;;;;5006788;28;20217;-89
2023/01/18 11:02:38;;;;;;;20.23;17.50;;;;;;;;;;4982543;28;20226;-90
2023/01/18 11:05:36;;;;;;;17.80;15.90;;;;;;;;;;4961797;28;20813;-88
2023/01/18 11:08:30;;;;;;;23.87;16.90;;;;;;;;;;4988767;28;20227;-90
2023/01/18 11:11:04;;;;;;;16.77;14.70;;;;;;;;;;4979166;28;20268;-90
2023/01/18 11:13:31;;;;;;;14.03;12.53;;;;;;;;;;5017528;28;20224;-91
2023/01/18 11:16:12;;;;;;;42.90;27.70;;;;;;;;;;4997710;28;20218;-91
2023/01/18 11:18:56;;;;;;;42.97;25.73;;;;;;;;;;4972112;28;20226;-90
2023/01/18 11:21:23;;;;;;;43.43;27.13;;;;;;;;;;5009842;28;20220;-90
2023/01/18 11:23:50;;;;;;;24.73;19.77;;;;;;;;;;4985246;28;20221;-90
2023/01/18 11:26:17;;;;;;;15.80;14.17;;;;;;;;;;4969739;28;20233;-91
2023/01/18 11:28:49;;;;;;;14.43;12.93;;;;;;;;;;4971944;28;20233;-90
2023/01/18 11:31:22;;;;;;;13.67;12.47;;;;;;;;;;4977948;28;20237;-90
2023/01/18 11:33:48;;;;;;;12.90;11.67;;;;;;;;;;4983355;28;20228;-90
2023/01/18 11:36:14;;;;;;;11.93;10.63;;;;;;;;;;4993833;28;20225;-90
2023/01/18 11:38:40;;;;;;;13.00;11.37;;;;;;;;;;4958599;28;20288;-90
2023/01/18 11:41:18;;;;;;;12.77;11.47;;;;;;;;;;4969335;28;20236;-91
2023/01/18 11:44:01;;;;;;;12.50;11.30;;;;;;;;;;4986883;28;20221;-89
2023/01/18 11:46:37;;;;;;;11.83;10.73;;;;;;;;;;4961444;28;20283;-90
2023/01/18 11:49:19;;;;;;;13.23;11.17;;;;;;;;;;4974421;28;20220;-91
2023/01/18 11:51:49;;;;;;;11.87;10.77;;;;;;;;;;4993852;28;20300;-88
2023/01/18 11:54:29;;;;;;;11.57;10.53;;;;;;;;;;4976802;28;20607;-90
2023/01/18 11:56:58;;;;;;;18.47;10.30;;;;;;;;;;4977478;28;20304;-88
2023/01/18 11:59:45;;;;;;;15.40;10.90;;;;;;;;;;4977131;28;20710;-87
2023/01/18 12:02:35;;;;;;;11.67;10.47;;;;;;;;;;4961033;28;20259;-88
2023/01/18 12:05:21;;;;;;;11.30;10.13;;;;;;;;;;4977140;28;20253;-90
2023/01/18 12:08:04;;;;;;;11.20;9.33;;;;;;;;;;5011414;28;20690;-90
2023/01/18 12:11:02;;;;;;;12.13;10.37;;;;;;;;;;4978542;28;20232;-89
2023/01/18 12:13:41;;;;;;;11.47;10.37;;;;;;;;;;4961568;28;20228;-90
2023/01/18 12:16:19;;;;;;;12.70;11.43;;;;;;;;;;4994321;28;20233;-90
2023/01/18 12:19:19;;;;;;;14.07;12.67;;;;;;;;;;4984862;28;20233;-88
2023/01/18 12:22:18;;;;;;;12.73;9.80;;;;;;;;;;4976955;28;20234;-89
2023/01/18 12:25:02;;;;;;;11.30;10.20;;;;;;;;;;4989148;28;20765;-89
2023/01/18 12:28:09;;;;;;;12.07;10.87;;;;;;;;;;5005958;28;20226;-89
2023/01/18 12:30:38;;;;;;;10.60;9.27;;;;;;;;;;4980363;28;20213;-88
2023/01/18 12:33:26;;;;;;;10.77;9.67;;;;;;;;;;4994372;28;20225;-89
2023/01/18 12:36:16;;;;;;;10.97;9.97;;;;;;;;;;4996948;28;20235;-88
2023/01/18 12:38:48;;;;;;;10.77;9.47;;;;;;;;;;4997306;28;20245;-88
2023/01/18 12:41:14;;;;;;;11.57;9.33;;;;;;;;;;4965683;28;20233;-89
2023/01/18 12:43:50;;;;;;;9.70;8.80;;;;;;;;;;4977765;28;20223;-89
2023/01/18 12:46:30;;;;;;;9.77;8.83;;;;;;;;;;5010624;28;20224;-89
2023/01/18 12:49:05;;;;;;;10.60;9.60;;;;;;;;;;4993966;28;20225;-89
2023/01/18 12:51:34;;;;;;;10.73;9.53;;;;;;;;;;4974404;28;20793;-89
2023/01/18 12:54:13;;;;;;;10.23;9.20;;;;;;;;;;4979330;28;20260;-88
2023/01/18 12:56:41;;;;;;;10.10;9.10;;;;;;;;;;4979212;28;20281;-89
2023/01/18 12:59:27;;;;;;;10.53;9.33;;;;;;;;;;4959779;28;20233;-88
2023/01/18 13:01:59;;;;;;;10.47;9.30;;;;;;;;;;4972592;28;20284;-88
2023/01/18 13:04:30;;;;;;;14.77;10.13;;;;;;;;;;4955172;28;20234;-88
2023/01/18 13:07:00;;;;;;;10.33;9.27;;;;;;;;;;4968909;28;20250;-88
2023/01/18 13:09:32;;;;;;;11.03;9.90;;;;;;;;;;4976584;28;20265;-88
2023/01/18 13:12:04;;;;;;;9.97;8.80;;;;;;;;;;4968938;28;20218;-88
2023/01/18 13:14:44;;;;;;;12.50;9.87;;;;;;;;;;4975309;28;20234;-88
2023/01/18 13:17:25;;;;;;;11.53;10.10;;;;;;;;;;5008136;28;20371;-87
2023/01/18 13:19:57;;;;;;;10.63;9.60;;;;;;;;;;4989289;28;20237;-88
2023/01/18 13:22:30;;;;;;;11.70;9.90;;;;;;;;;;4990627;28;20660;-87
2023/01/18 13:25:18;;;;;;;11.20;9.83;;;;;;;;;;4999985;28;20654;-88
2023/01/18 13:28:01;;;;;;;11.30;9.90;;;;;;;;;;4972903;28;20336;-88
2023/01/18 13:30:28;;;;;;;9.67;8.83;;;;;;;;;;4977047;28;20234;-88
2023/01/18 13:32:54;;;;;;;10.60;9.60;;;;;;;;;;4974179;28;20226;-87
2023/01/18 13:35:30;;;;;;;10.67;9.67;;;;;;;;;;4990982;28;20217;-89
2023/01/18 13:38:20;;;;;;;11.40;9.97;;;;;;;;;;4976190;28;20218;-88
2023/01/18 13:40:57;;;;;;;10.20;8.87;;;;;;;;;;4968392;28;20230;-88
2023/01/18 13:43:32;;;;;;;11.13;10.00;;;;;;;;;;4978345;28;20225;-88
2023/01/18 13:46:11;;;;;;;10.63;9.60;;;;;;;;;;4994848;28;20656;-88
2023/01/18 13:49:00;;;;;;;11.03;9.93;;;;;;;;;;4990603;28;20232;-88
2023/01/18 13:51:38;;;;;;;10.37;9.40;;;;;;;;;;4981867;28;20214;-88
2023/01/18 13:54:05;;;;;;;10.50;9.30;;;;;;;;;;4991164;28;20225;-89
2023/01/18 13:56:37;;;;;;;10.00;9.00;;;;;;;;;;4978649;28;20224;-88
2023/01/18 13:59:04;;;;;;;12.30;9.63;;;;;;;;;;4977973;28;20232;-88
2023/01/18 14:01:34;;;;;;;15.37;9.73;;;;;;;;;;5011353;28;20252;-87
2023/01/18 14:04:16;;;;;;;10.40;9.33;;;;;;;;;;5000759;28;20213;-88
2023/01/18 14:06:42;;;;;;;9.50;8.57;;;;;;;;;;4950312;28;20253;-90
2023/01/18 14:09:13;;;;;;;15.27;12.53;;;;;;;;;;4962842;28;20604;-89
2023/01/18 14:11:41;;;;;;;11.27;10.17;;;;;;;;;;4963354;28;20264;-90
2023/01/18 14:14:25;;;;;;;10.53;9.43;;;;;;;;;;4962596;28;20252;-87
2023/01/18 14:16:53;;;;;;;11.23;10.13;;;;;;;;;;4980224;28;20230;-89
2023/01/18 14:19:19;;;;;;;13.93;10.03;;;;;;;;;;4998488;28;20238;-89
2023/01/18 14:21:57;;;;;;;11.43;10.33;;;;;;;;;;4944848;28;20608;-88
2023/01/18 14:24:29;;;;;;;13.37;9.07;;;;;;;;;;4993525;28;20229;-89
2023/01/18 14:26:57;;;;;;;16.93;12.53;;;;;;;;;;5010018;28;20240;-88
2023/01/18 14:29:34;;;;;;;12.50;11.00;;;;;;;;;;4977959;28;22791;-89
2023/01/18 14:32:00;;;;;;;14.67;11.33;;;;;;;;;;4994669;28;20307;-89
2023/01/18 14:34:28;;;;;;;18.30;12.97;;;;;;;;;;4978494;28;20701;-88
2023/01/18 14:36:55;;;;;;;34.47;19.97;;;;;;;;;;4995224;28;20288;-88
2023/01/18 14:39:21;;;;;;;14.87;10.97;;;;;;;;;;4977922;28;20222;-89
2023/01/18 14:41:49;;;;;;;21.70;16.40;;;;;;;;;;4980585;28;20310;-88
2023/01/18 14:44:49;;;;;;;19.63;11.33;;;;;;;;;;4977211;28;20801;-88
2023/01/18 14:47:16;;;;;;;11.67;9.90;;;;;;;;;;4966002;28;20224;-88
2023/01/18 14:49:42;;;;;;;11.03;8.70;;;;;;;;;;4960448;28;20235;-87
2023/01/18 14:52:07;;;;;;;9.87;8.90;;;;;;;;;;4975171;28;20222;-88
2023/01/18 14:54:33;;;;;;;13.80;8.10;;;;;;;;;;4977444;28;20243;-88
2023/01/18 14:57:02;;;;;;;8.40;7.60;;;;;;;;;;4961458;28;20221;-87
2023/01/18 14:59:30;;;;;;;8.30;7.50;;;;;;;;;;4994830;28;20246;-88
2023/01/18 15:01:57;;;;;;;8.20;7.50;;;;;;;;;;4958031;28;20240;-88
2023/01/18 15:04:24;;;;;;;8.10;7.30;;;;;;;;;;4967264;28;20229;-88
2023/01/18 15:07:14;;;;;;;8.67;7.30;;;;;;;;;;4981940;28;20232;-88
2023/01/18 15:09:41;;;;;;;8.67;6.83;;;;;;;;;;4987056;28;20245;-88
2023/01/18 15:12:09;;;;;;;8.40;7.57;;;;;;;;;;4958078;28;20229;-89
2023/01/18 15:14:41;;;;;;;7.60;6.87;;;;;;;;;;4958135;28;20308;-89